<?xml version="1.0" encoding="utf-8"?>
<gpx xmlns:xsi="http://www.w3.org/2001/XMLSchema-instance" xmlns:xsd="http://www.w3.org/2001/XMLSchema" version="1.1" creator="Shapelink.com" xmlns="http://www.topografix.com/GPX/1/1" xmlns:gpxtpx="http://www.garmin.com/xmlschemas/TrackPointExtension/v1">
  <metadata>
    <name>Cykling 12.59 km, 2019-08-27</name>
    <desc></desc>
    <author><name>Henrik Staffas</name></author> 
    <time>2019-08-27T16:29:23Z</time>
  </metadata>
  <trk>
    <name>Cykling 12.59 km, 2019-08-27</name>
    <trkseg>
      <trkpt lat="59.333619460299" lon="18.018203805694">
        <ele>71.8</ele>
        <time>2019-08-27T16:29:23Z</time>
      </trkpt>
      <trkpt lat="59.333584591595" lon="18.018196513441">
        <ele>71.8</ele>
        <time>2019-08-27T16:29:25Z</time>
      </trkpt>
      <trkpt lat="59.333270605621" lon="18.017452535997">
        <ele>72.2</ele>
        <time>2019-08-27T16:29:40Z</time>
      </trkpt>
      <trkpt lat="59.333281753548" lon="18.017336111406">
        <ele>72</ele>
        <time>2019-08-27T16:29:43Z</time>
      </trkpt>
      <trkpt lat="59.333525750657" lon="18.016309915389">
        <ele>71.8</ele>
        <time>2019-08-27T16:29:59Z</time>
      </trkpt>
      <trkpt lat="59.333607893277" lon="18.016070695963">
        <ele>72</ele>
        <time>2019-08-27T16:30:02Z</time>
      </trkpt>
      <trkpt lat="59.333680480531" lon="18.01588067829">
        <ele>72.8</ele>
        <time>2019-08-27T16:30:05Z</time>
      </trkpt>
      <trkpt lat="59.334084655749" lon="18.015016085305">
        <ele>73.4</ele>
        <time>2019-08-27T16:30:18Z</time>
      </trkpt>
      <trkpt lat="59.334222705642" lon="18.01465943546">
        <ele>74</ele>
        <time>2019-08-27T16:30:22Z</time>
      </trkpt>
      <trkpt lat="59.334254892138" lon="18.014549213475">
        <ele>74</ele>
        <time>2019-08-27T16:30:23Z</time>
      </trkpt>
      <trkpt lat="59.334633083466" lon="18.013695433141">
        <ele>73.4</ele>
        <time>2019-08-27T16:30:34Z</time>
      </trkpt>
      <trkpt lat="59.33468136321" lon="18.013650338519">
        <ele>73.4</ele>
        <time>2019-08-27T16:30:35Z</time>
      </trkpt>
      <trkpt lat="59.334968108009" lon="18.013513042997">
        <ele>73.8</ele>
        <time>2019-08-27T16:30:43Z</time>
      </trkpt>
      <trkpt lat="59.335059638357" lon="18.013639525868">
        <ele>74.2</ele>
        <time>2019-08-27T16:30:47Z</time>
      </trkpt>
      <trkpt lat="59.335209255272" lon="18.013798279054">
        <ele>75.2</ele>
        <time>2019-08-27T16:30:51Z</time>
      </trkpt>
      <trkpt lat="59.335331211917" lon="18.013901963157">
        <ele>76.2</ele>
        <time>2019-08-27T16:30:54Z</time>
      </trkpt>
      <trkpt lat="59.335464316489" lon="18.014091729373">
        <ele>77.4</ele>
        <time>2019-08-27T16:30:58Z</time>
      </trkpt>
      <trkpt lat="59.335581160175" lon="18.014275376802">
        <ele>78.6</ele>
        <time>2019-08-27T16:31:02Z</time>
      </trkpt>
      <trkpt lat="59.335744104311" lon="18.014531443847">
        <ele>79.8</ele>
        <time>2019-08-27T16:31:07Z</time>
      </trkpt>
      <trkpt lat="59.335981814995" lon="18.014814668248">
        <ele>80.8</ele>
        <time>2019-08-27T16:31:13Z</time>
      </trkpt>
      <trkpt lat="59.33614735752" lon="18.015035363675">
        <ele>82.2</ele>
        <time>2019-08-27T16:31:17Z</time>
      </trkpt>
      <trkpt lat="59.336238552592" lon="18.015041985376">
        <ele>83.2</ele>
        <time>2019-08-27T16:31:21Z</time>
      </trkpt>
      <trkpt lat="59.336342152876" lon="18.015156314492">
        <ele>84.2</ele>
        <time>2019-08-27T16:31:24Z</time>
      </trkpt>
      <trkpt lat="59.336347768749" lon="18.015437862513">
        <ele>85.2</ele>
        <time>2019-08-27T16:31:27Z</time>
      </trkpt>
      <trkpt lat="59.336370399879" lon="18.015528722309">
        <ele>85.6</ele>
        <time>2019-08-27T16:31:28Z</time>
      </trkpt>
      <trkpt lat="59.336485231909" lon="18.015932729889">
        <ele>86.6</ele>
        <time>2019-08-27T16:31:33Z</time>
      </trkpt>
      <trkpt lat="59.336567877443" lon="18.01618075031">
        <ele>87.6</ele>
        <time>2019-08-27T16:31:37Z</time>
      </trkpt>
      <trkpt lat="59.33681707133" lon="18.01690159371">
        <ele>88.4</ele>
        <time>2019-08-27T16:31:54Z</time>
      </trkpt>
      <trkpt lat="59.336905584194" lon="18.01689153543">
        <ele>88</ele>
        <time>2019-08-27T16:31:58Z</time>
      </trkpt>
      <trkpt lat="59.337115634608" lon="18.016343610627">
        <ele>89</ele>
        <time>2019-08-27T16:32:05Z</time>
      </trkpt>
      <trkpt lat="59.337191993717" lon="18.016155185515">
        <ele>89.4</ele>
        <time>2019-08-27T16:32:07Z</time>
      </trkpt>
      <trkpt lat="59.337335743302" lon="18.015774479617">
        <ele>89.4</ele>
        <time>2019-08-27T16:32:11Z</time>
      </trkpt>
      <trkpt lat="59.337518301084" lon="18.015479520556">
        <ele>87.8</ele>
        <time>2019-08-27T16:32:15Z</time>
      </trkpt>
      <trkpt lat="59.33768627436" lon="18.015102418875">
        <ele>86.6</ele>
        <time>2019-08-27T16:32:19Z</time>
      </trkpt>
      <trkpt lat="59.33773069843" lon="18.01500057879">
        <ele>86.4</ele>
        <time>2019-08-27T16:32:20Z</time>
      </trkpt>
      <trkpt lat="59.337877800775" lon="18.014708469575">
        <ele>85.2</ele>
        <time>2019-08-27T16:32:23Z</time>
      </trkpt>
      <trkpt lat="59.338169826171" lon="18.01409784816">
        <ele>84.2</ele>
        <time>2019-08-27T16:32:27Z</time>
      </trkpt>
      <trkpt lat="59.338303936571" lon="18.013761901608">
        <ele>83.2</ele>
        <time>2019-08-27T16:32:30Z</time>
      </trkpt>
      <trkpt lat="59.338344085872" lon="18.013660229161">
        <ele>82.6</ele>
        <time>2019-08-27T16:32:31Z</time>
      </trkpt>
      <trkpt lat="59.338387252657" lon="18.013600717671">
        <ele>81.8</ele>
        <time>2019-08-27T16:32:32Z</time>
      </trkpt>
      <trkpt lat="59.338446428871" lon="18.013646399026">
        <ele>81.2</ele>
        <time>2019-08-27T16:32:33Z</time>
      </trkpt>
      <trkpt lat="59.338520692505" lon="18.013761314875">
        <ele>80.4</ele>
        <time>2019-08-27T16:32:35Z</time>
      </trkpt>
      <trkpt lat="59.338552543725" lon="18.013830549369">
        <ele>80</ele>
        <time>2019-08-27T16:32:36Z</time>
      </trkpt>
      <trkpt lat="59.338658407122" lon="18.014085191491">
        <ele>79.2</ele>
        <time>2019-08-27T16:32:39Z</time>
      </trkpt>
      <trkpt lat="59.338702244459" lon="18.014169764862">
        <ele>78.6</ele>
        <time>2019-08-27T16:32:40Z</time>
      </trkpt>
      <trkpt lat="59.33883543285" lon="18.014464640104">
        <ele>77.6</ele>
        <time>2019-08-27T16:32:43Z</time>
      </trkpt>
      <trkpt lat="59.338868206079" lon="18.014613586467">
        <ele>77.6</ele>
        <time>2019-08-27T16:32:44Z</time>
      </trkpt>
      <trkpt lat="59.339013883501" lon="18.015045505774">
        <ele>76.4</ele>
        <time>2019-08-27T16:32:48Z</time>
      </trkpt>
      <trkpt lat="59.339037939554" lon="18.015139215416">
        <ele>76</ele>
        <time>2019-08-27T16:32:49Z</time>
      </trkpt>
      <trkpt lat="59.339067360023" lon="18.015319258628">
        <ele>75.4</ele>
        <time>2019-08-27T16:32:51Z</time>
      </trkpt>
      <trkpt lat="59.339107257867" lon="18.015523525531">
        <ele>74.4</ele>
        <time>2019-08-27T16:32:54Z</time>
      </trkpt>
      <trkpt lat="59.339124105486" lon="18.015556550217">
        <ele>74</ele>
        <time>2019-08-27T16:32:55Z</time>
      </trkpt>
      <trkpt lat="59.339154531783" lon="18.015624359788">
        <ele>73</ele>
        <time>2019-08-27T16:32:57Z</time>
      </trkpt>
      <trkpt lat="59.33924698414" lon="18.015561746995">
        <ele>71.6</ele>
        <time>2019-08-27T16:33:00Z</time>
      </trkpt>
      <trkpt lat="59.339288809821" lon="18.015504582437">
        <ele>71.4</ele>
        <time>2019-08-27T16:33:01Z</time>
      </trkpt>
      <trkpt lat="59.339571196032" lon="18.014970487769">
        <ele>70.6</ele>
        <time>2019-08-27T16:33:05Z</time>
      </trkpt>
      <trkpt lat="59.339748808493" lon="18.014529096915">
        <ele>69.2</ele>
        <time>2019-08-27T16:33:08Z</time>
      </trkpt>
      <trkpt lat="59.33988484673" lon="18.014075133211">
        <ele>68.4</ele>
        <time>2019-08-27T16:33:11Z</time>
      </trkpt>
      <trkpt lat="59.340044857201" lon="18.013115824756">
        <ele>70.8</ele>
        <time>2019-08-27T16:33:19Z</time>
      </trkpt>
      <trkpt lat="59.340058938793" lon="18.013024797322">
        <ele>71.4</ele>
        <time>2019-08-27T16:33:20Z</time>
      </trkpt>
      <trkpt lat="59.340120797215" lon="18.012888759085">
        <ele>71.4</ele>
        <time>2019-08-27T16:33:22Z</time>
      </trkpt>
      <trkpt lat="59.340181985085" lon="18.012807454655">
        <ele>71.4</ele>
        <time>2019-08-27T16:33:24Z</time>
      </trkpt>
      <trkpt lat="59.340660675394" lon="18.013000238355">
        <ele>71.8</ele>
        <time>2019-08-27T16:33:33Z</time>
      </trkpt>
      <trkpt lat="59.340747763335" lon="18.012995460672">
        <ele>71.8</ele>
        <time>2019-08-27T16:33:35Z</time>
      </trkpt>
      <trkpt lat="59.341071388494" lon="18.012059537718">
        <ele>70.4</ele>
        <time>2019-08-27T16:33:49Z</time>
      </trkpt>
      <trkpt lat="59.341214048432" lon="18.011496190219">
        <ele>70.2</ele>
        <time>2019-08-27T16:33:54Z</time>
      </trkpt>
      <trkpt lat="59.341497691928" lon="18.010772664611">
        <ele>69.8</ele>
        <time>2019-08-27T16:34:02Z</time>
      </trkpt>
      <trkpt lat="59.341713190577" lon="18.0104483689">
        <ele>69.2</ele>
        <time>2019-08-27T16:34:07Z</time>
      </trkpt>
      <trkpt lat="59.341801535803" lon="18.010340158571">
        <ele>69.2</ele>
        <time>2019-08-27T16:34:09Z</time>
      </trkpt>
      <trkpt lat="59.342038492116" lon="18.010114098728">
        <ele>69.4</ele>
        <time>2019-08-27T16:34:13Z</time>
      </trkpt>
      <trkpt lat="59.342274442601" lon="18.009642281577">
        <ele>69</ele>
        <time>2019-08-27T16:34:21Z</time>
      </trkpt>
      <trkpt lat="59.342335211376" lon="18.009606742321">
        <ele>68.8</ele>
        <time>2019-08-27T16:34:22Z</time>
      </trkpt>
      <trkpt lat="59.34260142052" lon="18.009548488116">
        <ele>67.8</ele>
        <time>2019-08-27T16:34:26Z</time>
      </trkpt>
      <trkpt lat="59.34281096802" lon="18.009550583591">
        <ele>67.4</ele>
        <time>2019-08-27T16:34:29Z</time>
      </trkpt>
      <trkpt lat="59.343011546887" lon="18.009457041587">
        <ele>67.4</ele>
        <time>2019-08-27T16:34:32Z</time>
      </trkpt>
      <trkpt lat="59.343123109976" lon="18.009332402734">
        <ele>67</ele>
        <time>2019-08-27T16:34:34Z</time>
      </trkpt>
      <trkpt lat="59.343188740253" lon="18.009202231827">
        <ele>66.6</ele>
        <time>2019-08-27T16:34:35Z</time>
      </trkpt>
      <trkpt lat="59.343395354088" lon="18.008697976723">
        <ele>65.6</ele>
        <time>2019-08-27T16:34:39Z</time>
      </trkpt>
      <trkpt lat="59.343442041271" lon="18.008586581272">
        <ele>65.6</ele>
        <time>2019-08-27T16:34:40Z</time>
      </trkpt>
      <trkpt lat="59.343494176689" lon="18.008497397856">
        <ele>65.6</ele>
        <time>2019-08-27T16:34:41Z</time>
      </trkpt>
      <trkpt lat="59.343837834589" lon="18.007671613068">
        <ele>66.6</ele>
        <time>2019-08-27T16:34:50Z</time>
      </trkpt>
      <trkpt lat="59.343877480976" lon="18.007620902573">
        <ele>66.6</ele>
        <time>2019-08-27T16:34:51Z</time>
      </trkpt>
      <trkpt lat="59.344123908836" lon="18.007451588193">
        <ele>67</ele>
        <time>2019-08-27T16:34:56Z</time>
      </trkpt>
      <trkpt lat="59.344461950863" lon="18.007312448653">
        <ele>67.8</ele>
        <time>2019-08-27T16:35:04Z</time>
      </trkpt>
      <trkpt lat="59.344602012412" lon="18.007327200797">
        <ele>68.4</ele>
        <time>2019-08-27T16:35:07Z</time>
      </trkpt>
      <trkpt lat="59.344718269365" lon="18.007336839982">
        <ele>68.6</ele>
        <time>2019-08-27T16:35:09Z</time>
      </trkpt>
      <trkpt lat="59.345241383744" lon="18.007667841213">
        <ele>67.8</ele>
        <time>2019-08-27T16:35:17Z</time>
      </trkpt>
      <trkpt lat="59.345680511485" lon="18.008026586533">
        <ele>68.4</ele>
        <time>2019-08-27T16:35:24Z</time>
      </trkpt>
      <trkpt lat="59.346220222026" lon="18.008459679306">
        <ele>68.6</ele>
        <time>2019-08-27T16:35:32Z</time>
      </trkpt>
      <trkpt lat="59.346436223589" lon="18.008600411407">
        <ele>68.6</ele>
        <time>2019-08-27T16:35:35Z</time>
      </trkpt>
      <trkpt lat="59.346958835054" lon="18.009009615765">
        <ele>68.6</ele>
        <time>2019-08-27T16:35:42Z</time>
      </trkpt>
      <trkpt lat="59.347104512476" lon="18.009116317352">
        <ele>69</ele>
        <time>2019-08-27T16:35:44Z</time>
      </trkpt>
      <trkpt lat="59.347319675849" lon="18.00924388987">
        <ele>69.6</ele>
        <time>2019-08-27T16:35:47Z</time>
      </trkpt>
      <trkpt lat="59.3474478351" lon="18.009272304511">
        <ele>69.8</ele>
        <time>2019-08-27T16:35:49Z</time>
      </trkpt>
      <trkpt lat="59.347583454242" lon="18.009271131045">
        <ele>70.2</ele>
        <time>2019-08-27T16:35:51Z</time>
      </trkpt>
      <trkpt lat="59.347656209134" lon="18.009256043625">
        <ele>70.4</ele>
        <time>2019-08-27T16:35:52Z</time>
      </trkpt>
      <trkpt lat="59.347859973123" lon="18.009185551846">
        <ele>71.2</ele>
        <time>2019-08-27T16:35:55Z</time>
      </trkpt>
      <trkpt lat="59.348122158955" lon="18.008959072908">
        <ele>72.4</ele>
        <time>2019-08-27T16:36:00Z</time>
      </trkpt>
      <trkpt lat="59.34837990238" lon="18.00852807561">
        <ele>73.4</ele>
        <time>2019-08-27T16:36:06Z</time>
      </trkpt>
      <trkpt lat="59.348466906502" lon="18.008511563267">
        <ele>73.6</ele>
        <time>2019-08-27T16:36:08Z</time>
      </trkpt>
      <trkpt lat="59.348639657461" lon="18.00875019596">
        <ele>73.4</ele>
        <time>2019-08-27T16:36:12Z</time>
      </trkpt>
      <trkpt lat="59.34870428191" lon="18.008967370989">
        <ele>73.4</ele>
        <time>2019-08-27T16:36:14Z</time>
      </trkpt>
      <trkpt lat="59.348716519484" lon="18.009137272102">
        <ele>74.4</ele>
        <time>2019-08-27T16:36:16Z</time>
      </trkpt>
      <trkpt lat="59.348710316878" lon="18.009217319247">
        <ele>74.8</ele>
        <time>2019-08-27T16:36:17Z</time>
      </trkpt>
      <trkpt lat="59.348689613585" lon="18.009404989988">
        <ele>75.6</ele>
        <time>2019-08-27T16:36:19Z</time>
      </trkpt>
      <trkpt lat="59.348689110671" lon="18.009632139478">
        <ele>76.2</ele>
        <time>2019-08-27T16:36:21Z</time>
      </trkpt>
      <trkpt lat="59.348926905174" lon="18.010576863427">
        <ele>76.6</ele>
        <time>2019-08-27T16:36:31Z</time>
      </trkpt>
      <trkpt lat="59.348990859071" lon="18.010726564161">
        <ele>76.2</ele>
        <time>2019-08-27T16:36:33Z</time>
      </trkpt>
      <trkpt lat="59.349079036659" lon="18.011114478493">
        <ele>76.2</ele>
        <time>2019-08-27T16:36:37Z</time>
      </trkpt>
      <trkpt lat="59.349417330143" lon="18.011800453189">
        <ele>77</ele>
        <time>2019-08-27T16:36:45Z</time>
      </trkpt>
      <trkpt lat="59.349466615715" lon="18.011877566669">
        <ele>77.2</ele>
        <time>2019-08-27T16:36:46Z</time>
      </trkpt>
      <trkpt lat="59.349877496453" lon="18.012251231771">
        <ele>78.4</ele>
        <time>2019-08-27T16:36:54Z</time>
      </trkpt>
      <trkpt lat="59.350094755301" lon="18.012259865128">
        <ele>79.4</ele>
        <time>2019-08-27T16:36:58Z</time>
      </trkpt>
      <trkpt lat="59.35040496942" lon="18.012116702276">
        <ele>80.8</ele>
        <time>2019-08-27T16:37:04Z</time>
      </trkpt>
      <trkpt lat="59.350554083421" lon="18.012001954065">
        <ele>81.8</ele>
        <time>2019-08-27T16:37:07Z</time>
      </trkpt>
      <trkpt lat="59.350735803013" lon="18.011833561694">
        <ele>83.2</ele>
        <time>2019-08-27T16:37:11Z</time>
      </trkpt>
      <trkpt lat="59.350874858734" lon="18.01172157951">
        <ele>83.4</ele>
        <time>2019-08-27T16:37:14Z</time>
      </trkpt>
      <trkpt lat="59.350967562548" lon="18.011617392493">
        <ele>83.6</ele>
        <time>2019-08-27T16:37:16Z</time>
      </trkpt>
      <trkpt lat="59.351105528622" lon="18.011426955725">
        <ele>84.2</ele>
        <time>2019-08-27T16:37:19Z</time>
      </trkpt>
      <trkpt lat="59.351151880529" lon="18.011369036796">
        <ele>84.4</ele>
        <time>2019-08-27T16:37:20Z</time>
      </trkpt>
      <trkpt lat="59.351386741367" lon="18.011197962217">
        <ele>84.2</ele>
        <time>2019-08-27T16:37:24Z</time>
      </trkpt>
      <trkpt lat="59.351940952595" lon="18.0111524485">
        <ele>83.6</ele>
        <time>2019-08-27T16:37:31Z</time>
      </trkpt>
      <trkpt lat="59.352244461194" lon="18.011191508154">
        <ele>83</ele>
        <time>2019-08-27T16:37:34Z</time>
      </trkpt>
      <trkpt lat="59.352799510612" lon="18.011375658497">
        <ele>82.4</ele>
        <time>2019-08-27T16:37:42Z</time>
      </trkpt>
      <trkpt lat="59.353282643328" lon="18.011502309006">
        <ele>83</ele>
        <time>2019-08-27T16:37:49Z</time>
      </trkpt>
      <trkpt lat="59.353397642996" lon="18.011444641534">
        <ele>83</ele>
        <time>2019-08-27T16:37:51Z</time>
      </trkpt>
      <trkpt lat="59.35357165124" lon="18.011047926207">
        <ele>84.2</ele>
        <time>2019-08-27T16:37:57Z</time>
      </trkpt>
      <trkpt lat="59.353672401678" lon="18.011297706827">
        <ele>84</ele>
        <time>2019-08-27T16:38:03Z</time>
      </trkpt>
      <trkpt lat="59.353748257873" lon="18.011490993441">
        <ele>83.8</ele>
        <time>2019-08-27T16:38:06Z</time>
      </trkpt>
      <trkpt lat="59.353762842379" lon="18.011717053284">
        <ele>83.4</ele>
        <time>2019-08-27T16:38:09Z</time>
      </trkpt>
      <trkpt lat="59.353696373912" lon="18.011830628029">
        <ele>83</ele>
        <time>2019-08-27T16:38:11Z</time>
      </trkpt>
      <trkpt lat="59.353664438873" lon="18.011917129237">
        <ele>82.8</ele>
        <time>2019-08-27T16:38:12Z</time>
      </trkpt>
      <trkpt lat="59.353667959271" lon="18.012099267924">
        <ele>82.4</ele>
        <time>2019-08-27T16:38:14Z</time>
      </trkpt>
      <trkpt lat="59.353724118001" lon="18.012287022484">
        <ele>81.8</ele>
        <time>2019-08-27T16:38:16Z</time>
      </trkpt>
      <trkpt lat="59.353786311699" lon="18.012490702654">
        <ele>81</ele>
        <time>2019-08-27T16:38:18Z</time>
      </trkpt>
      <trkpt lat="59.353821348041" lon="18.012590363445">
        <ele>80.4</ele>
        <time>2019-08-27T16:38:19Z</time>
      </trkpt>
      <trkpt lat="59.353886643042" lon="18.01263520661">
        <ele>79.8</ele>
        <time>2019-08-27T16:38:20Z</time>
      </trkpt>
      <trkpt lat="59.353963337427" lon="18.012638140275">
        <ele>79.2</ele>
        <time>2019-08-27T16:38:21Z</time>
      </trkpt>
      <trkpt lat="59.354088646832" lon="18.012628417271">
        <ele>78.8</ele>
        <time>2019-08-27T16:38:23Z</time>
      </trkpt>
      <trkpt lat="59.354165425036" lon="18.012678708671">
        <ele>78.4</ele>
        <time>2019-08-27T16:38:25Z</time>
      </trkpt>
      <trkpt lat="59.354210854934" lon="18.012720785809">
        <ele>78</ele>
        <time>2019-08-27T16:38:26Z</time>
      </trkpt>
      <trkpt lat="59.354276149935" lon="18.012846681947">
        <ele>77.2</ele>
        <time>2019-08-27T16:38:28Z</time>
      </trkpt>
      <trkpt lat="59.354323004756" lon="18.012874426036">
        <ele>76.8</ele>
        <time>2019-08-27T16:38:29Z</time>
      </trkpt>
      <trkpt lat="59.354373631432" lon="18.012890938379">
        <ele>76.4</ele>
        <time>2019-08-27T16:38:30Z</time>
      </trkpt>
      <trkpt lat="59.354474549508" lon="18.012826565387">
        <ele>76</ele>
        <time>2019-08-27T16:38:32Z</time>
      </trkpt>
      <trkpt lat="59.354609749555" lon="18.012708212959">
        <ele>75.6</ele>
        <time>2019-08-27T16:38:34Z</time>
      </trkpt>
      <trkpt lat="59.354875455785" lon="18.012523894978">
        <ele>74.8</ele>
        <time>2019-08-27T16:38:37Z</time>
      </trkpt>
      <trkpt lat="59.354965309753" lon="18.012478129804">
        <ele>74.4</ele>
        <time>2019-08-27T16:38:38Z</time>
      </trkpt>
      <trkpt lat="59.355130936097" lon="18.012391544777">
        <ele>73.8</ele>
        <time>2019-08-27T16:38:40Z</time>
      </trkpt>
      <trkpt lat="59.355248115059" lon="18.012236563446">
        <ele>73.6</ele>
        <time>2019-08-27T16:38:42Z</time>
      </trkpt>
      <trkpt lat="59.355331431145" lon="18.012052580741">
        <ele>73.4</ele>
        <time>2019-08-27T16:38:44Z</time>
      </trkpt>
      <trkpt lat="59.355495381109" lon="18.011700540941">
        <ele>72.2</ele>
        <time>2019-08-27T16:38:48Z</time>
      </trkpt>
      <trkpt lat="59.355607950026" lon="18.011430057028">
        <ele>71.8</ele>
        <time>2019-08-27T16:38:53Z</time>
      </trkpt>
      <trkpt lat="59.35546679883" lon="18.012059621537">
        <ele>71</ele>
        <time>2019-08-27T16:39:02Z</time>
      </trkpt>
      <trkpt lat="59.355237218589" lon="18.013072322695">
        <ele>70</ele>
        <time>2019-08-27T16:39:12Z</time>
      </trkpt>
      <trkpt lat="59.355135294685" lon="18.013557634705">
        <ele>69.6</ele>
        <time>2019-08-27T16:39:17Z</time>
      </trkpt>
      <trkpt lat="59.354832540457" lon="18.014538568462">
        <ele>70.8</ele>
        <time>2019-08-27T16:39:25Z</time>
      </trkpt>
      <trkpt lat="59.354795241002" lon="18.014643426031">
        <ele>71</ele>
        <time>2019-08-27T16:39:26Z</time>
      </trkpt>
      <trkpt lat="59.354704548844" lon="18.015018851332">
        <ele>72.2</ele>
        <time>2019-08-27T16:39:29Z</time>
      </trkpt>
      <trkpt lat="59.35463615254" lon="18.015268631952">
        <ele>72.2</ele>
        <time>2019-08-27T16:39:42Z</time>
      </trkpt>
      <trkpt lat="59.354657777842" lon="18.015306434321">
        <ele>72</ele>
        <time>2019-08-27T16:39:44Z</time>
      </trkpt>
      <trkpt lat="59.355094307194" lon="18.015787555381">
        <ele>73.2</ele>
        <time>2019-08-27T16:40:04Z</time>
      </trkpt>
      <trkpt lat="59.355285582152" lon="18.016179660663">
        <ele>73.8</ele>
        <time>2019-08-27T16:40:11Z</time>
      </trkpt>
      <trkpt lat="59.355851108945" lon="18.016461292503">
        <ele>74.2</ele>
        <time>2019-08-27T16:40:22Z</time>
      </trkpt>
      <trkpt lat="59.355996451091" lon="18.01651015898">
        <ele>74.4</ele>
        <time>2019-08-27T16:40:24Z</time>
      </trkpt>
      <trkpt lat="59.35658913524" lon="18.016677461704">
        <ele>75</ele>
        <time>2019-08-27T16:40:32Z</time>
      </trkpt>
      <trkpt lat="59.357166480512" lon="18.016758766134">
        <ele>74.6</ele>
        <time>2019-08-27T16:40:38Z</time>
      </trkpt>
      <trkpt lat="59.357727481079" lon="18.016952555662">
        <ele>74.2</ele>
        <time>2019-08-27T16:40:45Z</time>
      </trkpt>
      <trkpt lat="59.358277920452" lon="18.017140142584">
        <ele>74.6</ele>
        <time>2019-08-27T16:40:52Z</time>
      </trkpt>
      <trkpt lat="59.358572208961" lon="18.017235109511">
        <ele>75.6</ele>
        <time>2019-08-27T16:40:56Z</time>
      </trkpt>
      <trkpt lat="59.359121810144" lon="18.017370393377">
        <ele>76.4</ele>
        <time>2019-08-27T16:41:04Z</time>
      </trkpt>
      <trkpt lat="59.359186769869" lon="18.017377182716">
        <ele>76.6</ele>
        <time>2019-08-27T16:41:05Z</time>
      </trkpt>
      <trkpt lat="59.359640901211" lon="18.017437280939">
        <ele>77.8</ele>
        <time>2019-08-27T16:41:12Z</time>
      </trkpt>
      <trkpt lat="59.359880120637" lon="18.0174221097">
        <ele>78.8</ele>
        <time>2019-08-27T16:41:16Z</time>
      </trkpt>
      <trkpt lat="59.360237608672" lon="18.017384642607">
        <ele>80</ele>
        <time>2019-08-27T16:41:22Z</time>
      </trkpt>
      <trkpt lat="59.360617644018" lon="18.017353713396">
        <ele>80.2</ele>
        <time>2019-08-27T16:41:29Z</time>
      </trkpt>
      <trkpt lat="59.360720992845" lon="18.017335189397">
        <ele>81.2</ele>
        <time>2019-08-27T16:41:31Z</time>
      </trkpt>
      <trkpt lat="59.36081109827" lon="18.01731901233">
        <ele>82.2</ele>
        <time>2019-08-27T16:41:33Z</time>
      </trkpt>
      <trkpt lat="59.360973371854" lon="18.017280958504">
        <ele>83.4</ele>
        <time>2019-08-27T16:41:37Z</time>
      </trkpt>
      <trkpt lat="59.361108152806" lon="18.017258159736">
        <ele>84.4</ele>
        <time>2019-08-27T16:41:41Z</time>
      </trkpt>
      <trkpt lat="59.361240167731" lon="18.017211807829">
        <ele>85.6</ele>
        <time>2019-08-27T16:41:45Z</time>
      </trkpt>
      <trkpt lat="59.361394562329" lon="18.017089683546">
        <ele>86.8</ele>
        <time>2019-08-27T16:41:49Z</time>
      </trkpt>
      <trkpt lat="59.361548873108" lon="18.016996979732">
        <ele>87.8</ele>
        <time>2019-08-27T16:41:53Z</time>
      </trkpt>
      <trkpt lat="59.361887166592" lon="18.016750635691">
        <ele>87.8</ele>
        <time>2019-08-27T16:42:02Z</time>
      </trkpt>
      <trkpt lat="59.362060671922" lon="18.016455341354">
        <ele>86.8</ele>
        <time>2019-08-27T16:42:06Z</time>
      </trkpt>
      <trkpt lat="59.362120267231" lon="18.016401361918">
        <ele>86.4</ele>
        <time>2019-08-27T16:42:07Z</time>
      </trkpt>
      <trkpt lat="59.3624095266" lon="18.016188210201">
        <ele>86.2</ele>
        <time>2019-08-27T16:42:11Z</time>
      </trkpt>
      <trkpt lat="59.362880086466" lon="18.015956869761">
        <ele>86.6</ele>
        <time>2019-08-27T16:42:17Z</time>
      </trkpt>
      <trkpt lat="59.363233635008" lon="18.015845641948">
        <ele>85.6</ele>
        <time>2019-08-27T16:42:23Z</time>
      </trkpt>
      <trkpt lat="59.36327621506" lon="18.015876235883">
        <ele>85.6</ele>
        <time>2019-08-27T16:42:24Z</time>
      </trkpt>
      <trkpt lat="59.363527588241" lon="18.016219055593">
        <ele>85</ele>
        <time>2019-08-27T16:42:31Z</time>
      </trkpt>
      <trkpt lat="59.363594391984" lon="18.016373366372">
        <ele>84.6</ele>
        <time>2019-08-27T16:42:33Z</time>
      </trkpt>
      <trkpt lat="59.363613837992" lon="18.016544860046">
        <ele>83.4</ele>
        <time>2019-08-27T16:42:35Z</time>
      </trkpt>
      <trkpt lat="59.363736213732" lon="18.01683286213">
        <ele>82.4</ele>
        <time>2019-08-27T16:42:41Z</time>
      </trkpt>
      <trkpt lat="59.363754234817" lon="18.016870077766">
        <ele>82.2</ele>
        <time>2019-08-27T16:42:42Z</time>
      </trkpt>
      <trkpt lat="59.363849369382" lon="18.016686262699">
        <ele>81.8</ele>
        <time>2019-08-27T16:42:44Z</time>
      </trkpt>
      <trkpt lat="59.363949952182" lon="18.016575034886">
        <ele>81.6</ele>
        <time>2019-08-27T16:42:46Z</time>
      </trkpt>
      <trkpt lat="59.36402974787" lon="18.016423909229">
        <ele>81.4</ele>
        <time>2019-08-27T16:42:48Z</time>
      </trkpt>
      <trkpt lat="59.364183807192" lon="18.01598461385">
        <ele>80.8</ele>
        <time>2019-08-27T16:42:53Z</time>
      </trkpt>
      <trkpt lat="59.364259998663" lon="18.015682194898">
        <ele>80.2</ele>
        <time>2019-08-27T16:42:56Z</time>
      </trkpt>
      <trkpt lat="59.364264105794" lon="18.015380697955">
        <ele>79</ele>
        <time>2019-08-27T16:42:59Z</time>
      </trkpt>
      <trkpt lat="59.364259914844" lon="18.014945342069">
        <ele>78.2</ele>
        <time>2019-08-27T16:43:02Z</time>
      </trkpt>
      <trkpt lat="59.364270978952" lon="18.014667649722">
        <ele>78</ele>
        <time>2019-08-27T16:43:04Z</time>
      </trkpt>
      <trkpt lat="59.364293526263" lon="18.014600426884">
        <ele>77.8</ele>
        <time>2019-08-27T16:43:05Z</time>
      </trkpt>
      <trkpt lat="59.364370639743" lon="18.014596487391">
        <ele>77</ele>
        <time>2019-08-27T16:43:07Z</time>
      </trkpt>
      <trkpt lat="59.364408023017" lon="18.014627751878">
        <ele>76.6</ele>
        <time>2019-08-27T16:43:08Z</time>
      </trkpt>
      <trkpt lat="59.364485807049" lon="18.014698998028">
        <ele>75.6</ele>
        <time>2019-08-27T16:43:10Z</time>
      </trkpt>
      <trkpt lat="59.36453266187" lon="18.014734369646">
        <ele>75.4</ele>
        <time>2019-08-27T16:43:11Z</time>
      </trkpt>
      <trkpt lat="59.364667861917" lon="18.014832605514">
        <ele>74.8</ele>
        <time>2019-08-27T16:43:14Z</time>
      </trkpt>
      <trkpt lat="59.364775569332" lon="18.014976774194">
        <ele>74.6</ele>
        <time>2019-08-27T16:43:16Z</time>
      </trkpt>
      <trkpt lat="59.36488805443" lon="18.014975265452">
        <ele>74.6</ele>
        <time>2019-08-27T16:43:18Z</time>
      </trkpt>
      <trkpt lat="59.365260797523" lon="18.014639151262">
        <ele>75.8</ele>
        <time>2019-08-27T16:43:37Z</time>
      </trkpt>
      <trkpt lat="59.365705038223" lon="18.014004641432">
        <ele>75.6</ele>
        <time>2019-08-27T16:43:49Z</time>
      </trkpt>
      <trkpt lat="59.366193283898" lon="18.013386476307">
        <ele>76.6</ele>
        <time>2019-08-27T16:43:59Z</time>
      </trkpt>
      <trkpt lat="59.366242988565" lon="18.013319085831">
        <ele>76.6</ele>
        <time>2019-08-27T16:44:00Z</time>
      </trkpt>
      <trkpt lat="59.366678512089" lon="18.01269639448">
        <ele>76.8</ele>
        <time>2019-08-27T16:44:08Z</time>
      </trkpt>
      <trkpt lat="59.366990570226" lon="18.012190714453">
        <ele>75.2</ele>
        <time>2019-08-27T16:44:14Z</time>
      </trkpt>
      <trkpt lat="59.367043543834" lon="18.012108739471">
        <ele>74.8</ele>
        <time>2019-08-27T16:44:15Z</time>
      </trkpt>
      <trkpt lat="59.367227023625" lon="18.011959457832">
        <ele>74.2</ele>
        <time>2019-08-27T16:44:18Z</time>
      </trkpt>
      <trkpt lat="59.367640418933" lon="18.011398289627">
        <ele>72.6</ele>
        <time>2019-08-27T16:44:25Z</time>
      </trkpt>
      <trkpt lat="59.367717364775" lon="18.011243978848">
        <ele>71.6</ele>
        <time>2019-08-27T16:44:27Z</time>
      </trkpt>
      <trkpt lat="59.36778064812" lon="18.011142557858">
        <ele>70.4</ele>
        <time>2019-08-27T16:44:29Z</time>
      </trkpt>
      <trkpt lat="59.367816355014" lon="18.011097714693">
        <ele>69.8</ele>
        <time>2019-08-27T16:44:30Z</time>
      </trkpt>
      <trkpt lat="59.367844015284" lon="18.011074748287">
        <ele>69.4</ele>
        <time>2019-08-27T16:44:31Z</time>
      </trkpt>
      <trkpt lat="59.367871759373" lon="18.011068378043">
        <ele>69</ele>
        <time>2019-08-27T16:44:32Z</time>
      </trkpt>
      <trkpt lat="59.367950549233" lon="18.011070724975">
        <ele>68.6</ele>
        <time>2019-08-27T16:44:35Z</time>
      </trkpt>
      <trkpt lat="59.368233522177" lon="18.010618186194">
        <ele>70.4</ele>
        <time>2019-08-27T16:44:43Z</time>
      </trkpt>
      <trkpt lat="59.368404093842" lon="18.010344684797">
        <ele>71.6</ele>
        <time>2019-08-27T16:44:47Z</time>
      </trkpt>
      <trkpt lat="59.368436028881" lon="18.010278132511">
        <ele>72</ele>
        <time>2019-08-27T16:44:48Z</time>
      </trkpt>
      <trkpt lat="59.368494199267" lon="18.010106052104">
        <ele>72</ele>
        <time>2019-08-27T16:44:50Z</time>
      </trkpt>
      <trkpt lat="59.368543820115" lon="18.009911005291">
        <ele>71.4</ele>
        <time>2019-08-27T16:44:52Z</time>
      </trkpt>
      <trkpt lat="59.36858195776" lon="18.009718724505">
        <ele>70.6</ele>
        <time>2019-08-27T16:44:54Z</time>
      </trkpt>
      <trkpt lat="59.368648593865" lon="18.009534909438">
        <ele>70.4</ele>
        <time>2019-08-27T16:44:56Z</time>
      </trkpt>
      <trkpt lat="59.369122674129" lon="18.008854382977">
        <ele>70</ele>
        <time>2019-08-27T16:45:04Z</time>
      </trkpt>
      <trkpt lat="59.369266256076" lon="18.008730666133">
        <ele>70</ele>
        <time>2019-08-27T16:45:06Z</time>
      </trkpt>
      <trkpt lat="59.369767577515" lon="18.008482729531">
        <ele>69.6</ele>
        <time>2019-08-27T16:45:12Z</time>
      </trkpt>
      <trkpt lat="59.370351963583" lon="18.008246946684">
        <ele>68.8</ele>
        <time>2019-08-27T16:45:19Z</time>
      </trkpt>
      <trkpt lat="59.370694867112" lon="18.008073692811">
        <ele>68.6</ele>
        <time>2019-08-27T16:45:23Z</time>
      </trkpt>
      <trkpt lat="59.371305488527" lon="18.007926171371">
        <ele>68.4</ele>
        <time>2019-08-27T16:45:30Z</time>
      </trkpt>
      <trkpt lat="59.371667251331" lon="18.007778817569">
        <ele>67.2</ele>
        <time>2019-08-27T16:45:34Z</time>
      </trkpt>
      <trkpt lat="59.372195059574" lon="18.007564576205">
        <ele>67.8</ele>
        <time>2019-08-27T16:45:40Z</time>
      </trkpt>
      <trkpt lat="59.372378455546" lon="18.007514452443">
        <ele>68.4</ele>
        <time>2019-08-27T16:45:42Z</time>
      </trkpt>
      <trkpt lat="59.372626140691" lon="18.007256457561">
        <ele>68</ele>
        <time>2019-08-27T16:45:45Z</time>
      </trkpt>
      <trkpt lat="59.372803585514" lon="18.007118994401">
        <ele>67</ele>
        <time>2019-08-27T16:45:47Z</time>
      </trkpt>
      <trkpt lat="59.373087564286" lon="18.006864352279">
        <ele>66</ele>
        <time>2019-08-27T16:45:50Z</time>
      </trkpt>
      <trkpt lat="59.373609337561" lon="18.006327575403">
        <ele>65</ele>
        <time>2019-08-27T16:45:56Z</time>
      </trkpt>
      <trkpt lat="59.374123734764" lon="18.005927842592">
        <ele>65</ele>
        <time>2019-08-27T16:46:02Z</time>
      </trkpt>
      <trkpt lat="59.374646513867" lon="18.005443787867">
        <ele>66.2</ele>
        <time>2019-08-27T16:46:09Z</time>
      </trkpt>
      <trkpt lat="59.375066698514" lon="18.00509904032">
        <ele>67.2</ele>
        <time>2019-08-27T16:46:15Z</time>
      </trkpt>
      <trkpt lat="59.375444386928" lon="18.00481154115">
        <ele>68.4</ele>
        <time>2019-08-27T16:46:21Z</time>
      </trkpt>
      <trkpt lat="59.375968339497" lon="18.00451901284">
        <ele>68.6</ele>
        <time>2019-08-27T16:46:30Z</time>
      </trkpt>
      <trkpt lat="59.376202362145" lon="18.004404767543">
        <ele>69.4</ele>
        <time>2019-08-27T16:46:34Z</time>
      </trkpt>
      <trkpt lat="59.37648022213" lon="18.004284571097">
        <ele>70.6</ele>
        <time>2019-08-27T16:46:39Z</time>
      </trkpt>
      <trkpt lat="59.376642663352" lon="18.004182311917">
        <ele>71</ele>
        <time>2019-08-27T16:46:42Z</time>
      </trkpt>
      <trkpt lat="59.376863861693" lon="18.004061444919">
        <ele>71.6</ele>
        <time>2019-08-27T16:46:46Z</time>
      </trkpt>
      <trkpt lat="59.376947680693" lon="18.003988773846">
        <ele>72</ele>
        <time>2019-08-27T16:46:48Z</time>
      </trkpt>
      <trkpt lat="59.377053460271" lon="18.003716613553">
        <ele>72.8</ele>
        <time>2019-08-27T16:46:51Z</time>
      </trkpt>
      <trkpt lat="59.377287147643" lon="18.003490469891">
        <ele>73.8</ele>
        <time>2019-08-27T16:46:55Z</time>
      </trkpt>
      <trkpt lat="59.377385802606" lon="18.003407237624">
        <ele>74.8</ele>
        <time>2019-08-27T16:46:57Z</time>
      </trkpt>
      <trkpt lat="59.377434585264" lon="18.003385696141">
        <ele>75.4</ele>
        <time>2019-08-27T16:46:58Z</time>
      </trkpt>
      <trkpt lat="59.377573724804" lon="18.003358622604">
        <ele>76.2</ele>
        <time>2019-08-27T16:47:01Z</time>
      </trkpt>
      <trkpt lat="59.37768721573" lon="18.003296848001">
        <ele>76.4</ele>
        <time>2019-08-27T16:47:03Z</time>
      </trkpt>
      <trkpt lat="59.377744967021" lon="18.003252088655">
        <ele>76.4</ele>
        <time>2019-08-27T16:47:04Z</time>
      </trkpt>
      <trkpt lat="59.377903049655" lon="18.003049162856">
        <ele>76.4</ele>
        <time>2019-08-27T16:47:07Z</time>
      </trkpt>
      <trkpt lat="59.378428259509" lon="18.002650771149">
        <ele>77.2</ele>
        <time>2019-08-27T16:47:16Z</time>
      </trkpt>
      <trkpt lat="59.378990349723" lon="18.002221114955">
        <ele>75.6</ele>
        <time>2019-08-27T16:47:24Z</time>
      </trkpt>
      <trkpt lat="59.379533915938" lon="18.00178818982">
        <ele>75.2</ele>
        <time>2019-08-27T16:47:31Z</time>
      </trkpt>
      <trkpt lat="59.379988131099" lon="18.001476466959">
        <ele>74.2</ele>
        <time>2019-08-27T16:47:37Z</time>
      </trkpt>
      <trkpt lat="59.380146213733" lon="18.001430953242">
        <ele>73.8</ele>
        <time>2019-08-27T16:47:39Z</time>
      </trkpt>
      <trkpt lat="59.380407309918" lon="18.001463391195">
        <ele>73.2</ele>
        <time>2019-08-27T16:47:42Z</time>
      </trkpt>
      <trkpt lat="59.380659186013" lon="18.001531619861">
        <ele>72</ele>
        <time>2019-08-27T16:47:45Z</time>
      </trkpt>
      <trkpt lat="59.380900752371" lon="18.001589371152">
        <ele>71.2</ele>
        <time>2019-08-27T16:47:49Z</time>
      </trkpt>
      <trkpt lat="59.380991779805" lon="18.001597753052">
        <ele>70.8</ele>
        <time>2019-08-27T16:47:51Z</time>
      </trkpt>
      <trkpt lat="59.381188419179" lon="18.001621054734">
        <ele>70</ele>
        <time>2019-08-27T16:47:59Z</time>
      </trkpt>
      <trkpt lat="59.381578680443" lon="18.001060054167">
        <ele>70</ele>
        <time>2019-08-27T16:48:08Z</time>
      </trkpt>
      <trkpt lat="59.38190079686" lon="18.000672894206">
        <ele>69.8</ele>
        <time>2019-08-27T16:48:13Z</time>
      </trkpt>
      <trkpt lat="59.38239784353" lon="18.000025643888">
        <ele>69.2</ele>
        <time>2019-08-27T16:48:21Z</time>
      </trkpt>
      <trkpt lat="59.382782656559" lon="17.999497751826">
        <ele>69.2</ele>
        <time>2019-08-27T16:48:28Z</time>
      </trkpt>
      <trkpt lat="59.38300469309" lon="17.998896601958">
        <ele>69</ele>
        <time>2019-08-27T16:48:34Z</time>
      </trkpt>
      <trkpt lat="59.38346653578" lon="17.998304755999">
        <ele>70</ele>
        <time>2019-08-27T16:48:42Z</time>
      </trkpt>
      <trkpt lat="59.383635514884" lon="17.998090598454">
        <ele>70.2</ele>
        <time>2019-08-27T16:48:45Z</time>
      </trkpt>
      <trkpt lat="59.38376241685" lon="17.997991105301">
        <ele>70</ele>
        <time>2019-08-27T16:48:47Z</time>
      </trkpt>
      <trkpt lat="59.384167765534" lon="17.997974006225">
        <ele>71</ele>
        <time>2019-08-27T16:48:53Z</time>
      </trkpt>
      <trkpt lat="59.384706386428" lon="17.997942238824">
        <ele>71</ele>
        <time>2019-08-27T16:49:01Z</time>
      </trkpt>
      <trkpt lat="59.38528289351" lon="17.997909465595">
        <ele>72</ele>
        <time>2019-08-27T16:49:10Z</time>
      </trkpt>
      <trkpt lat="59.38534575776" lon="17.997907873034">
        <ele>72.2</ele>
        <time>2019-08-27T16:49:11Z</time>
      </trkpt>
      <trkpt lat="59.385892928192" lon="17.997854145055">
        <ele>73</ele>
        <time>2019-08-27T16:49:20Z</time>
      </trkpt>
      <trkpt lat="59.385953613148" lon="17.997848361544">
        <ele>73.4</ele>
        <time>2019-08-27T16:49:21Z</time>
      </trkpt>
      <trkpt lat="59.386539507958" lon="17.997816594143">
        <ele>74.4</ele>
        <time>2019-08-27T16:49:31Z</time>
      </trkpt>
      <trkpt lat="59.386595834326" lon="17.997810894451">
        <ele>74.4</ele>
        <time>2019-08-27T16:49:32Z</time>
      </trkpt>
      <trkpt lat="59.386840585806" lon="17.997787760407">
        <ele>75.6</ele>
        <time>2019-08-27T16:49:37Z</time>
      </trkpt>
      <trkpt lat="59.38709254572" lon="17.997752137332">
        <ele>76.8</ele>
        <time>2019-08-27T16:49:43Z</time>
      </trkpt>
      <trkpt lat="59.387176197082" lon="17.997741659957">
        <ele>78</ele>
        <time>2019-08-27T16:49:45Z</time>
      </trkpt>
      <trkpt lat="59.387264626127" lon="17.997745934726">
        <ele>78.6</ele>
        <time>2019-08-27T16:49:47Z</time>
      </trkpt>
      <trkpt lat="59.387349283317" lon="17.997782228353">
        <ele>79.2</ele>
        <time>2019-08-27T16:49:49Z</time>
      </trkpt>
      <trkpt lat="59.387428156996" lon="17.99812110857">
        <ele>80.2</ele>
        <time>2019-08-27T16:49:55Z</time>
      </trkpt>
      <trkpt lat="59.387442406226" lon="17.998484966849">
        <ele>80.2</ele>
        <time>2019-08-27T16:49:59Z</time>
      </trkpt>
      <trkpt lat="59.387506527761" lon="17.998778584806">
        <ele>79</ele>
        <time>2019-08-27T16:50:02Z</time>
      </trkpt>
      <trkpt lat="59.387539552447" lon="17.998874389923">
        <ele>78.6</ele>
        <time>2019-08-27T16:50:03Z</time>
      </trkpt>
      <trkpt lat="59.387631082795" lon="17.998983019347">
        <ele>78</ele>
        <time>2019-08-27T16:50:05Z</time>
      </trkpt>
      <trkpt lat="59.387681541833" lon="17.999016714585">
        <ele>78</ele>
        <time>2019-08-27T16:50:06Z</time>
      </trkpt>
      <trkpt lat="59.387731665595" lon="17.999044039579">
        <ele>77.8</ele>
        <time>2019-08-27T16:50:07Z</time>
      </trkpt>
      <trkpt lat="59.387837277535" lon="17.999038591344">
        <ele>77.8</ele>
        <time>2019-08-27T16:50:09Z</time>
      </trkpt>
      <trkpt lat="59.38792151563" lon="17.998989054315">
        <ele>78</ele>
        <time>2019-08-27T16:50:11Z</time>
      </trkpt>
      <trkpt lat="59.388073814753" lon="17.998790570923">
        <ele>79.2</ele>
        <time>2019-08-27T16:50:15Z</time>
      </trkpt>
      <trkpt lat="59.388223347849" lon="17.998574401722">
        <ele>80.4</ele>
        <time>2019-08-27T16:50:19Z</time>
      </trkpt>
      <trkpt lat="59.388379418827" lon="17.998337193952">
        <ele>80.8</ele>
        <time>2019-08-27T16:50:23Z</time>
      </trkpt>
      <trkpt lat="59.388631965474" lon="17.998054723922">
        <ele>79.2</ele>
        <time>2019-08-27T16:50:27Z</time>
      </trkpt>
      <trkpt lat="59.388788539366" lon="17.99784785863">
        <ele>77.6</ele>
        <time>2019-08-27T16:50:29Z</time>
      </trkpt>
      <trkpt lat="59.388945532353" lon="17.9976240619">
        <ele>76</ele>
        <time>2019-08-27T16:50:31Z</time>
      </trkpt>
      <trkpt lat="59.389102106245" lon="17.997384926293">
        <ele>74.8</ele>
        <time>2019-08-27T16:50:33Z</time>
      </trkpt>
      <trkpt lat="59.389257003757" lon="17.997164482323">
        <ele>73.6</ele>
        <time>2019-08-27T16:50:35Z</time>
      </trkpt>
      <trkpt lat="59.389482560686" lon="17.996863153018">
        <ele>72.6</ele>
        <time>2019-08-27T16:50:38Z</time>
      </trkpt>
      <trkpt lat="59.389723540311" lon="17.996551933071">
        <ele>71.4</ele>
        <time>2019-08-27T16:50:41Z</time>
      </trkpt>
      <trkpt lat="59.389867206077" lon="17.996300978985">
        <ele>70.6</ele>
        <time>2019-08-27T16:50:43Z</time>
      </trkpt>
      <trkpt lat="59.389932417259" lon="17.996153457545">
        <ele>70</ele>
        <time>2019-08-27T16:50:44Z</time>
      </trkpt>
      <trkpt lat="59.390044567081" lon="17.995835029164">
        <ele>68.6</ele>
        <time>2019-08-27T16:50:46Z</time>
      </trkpt>
      <trkpt lat="59.390148837917" lon="17.995533364583">
        <ele>67.6</ele>
        <time>2019-08-27T16:50:48Z</time>
      </trkpt>
      <trkpt lat="59.390458297665" lon="17.994575732508">
        <ele>67.6</ele>
        <time>2019-08-27T16:50:55Z</time>
      </trkpt>
      <trkpt lat="59.390758537323" lon="17.993593373828">
        <ele>68.4</ele>
        <time>2019-08-27T16:51:03Z</time>
      </trkpt>
      <trkpt lat="59.390824502876" lon="17.993342755018">
        <ele>68.8</ele>
        <time>2019-08-27T16:51:05Z</time>
      </trkpt>
      <trkpt lat="59.39109825573" lon="17.992585785629">
        <ele>69.8</ele>
        <time>2019-08-27T16:51:12Z</time>
      </trkpt>
      <trkpt lat="59.39141006241" lon="17.991649946494">
        <ele>71.2</ele>
        <time>2019-08-27T16:51:21Z</time>
      </trkpt>
      <trkpt lat="59.391699070322" lon="17.990732044625">
        <ele>72.4</ele>
        <time>2019-08-27T16:51:30Z</time>
      </trkpt>
      <trkpt lat="59.391917754093" lon="17.989998544556">
        <ele>73.6</ele>
        <time>2019-08-27T16:51:37Z</time>
      </trkpt>
      <trkpt lat="59.392121518082" lon="17.989022220844">
        <ele>74</ele>
        <time>2019-08-27T16:51:46Z</time>
      </trkpt>
      <trkpt lat="59.392234506094" lon="17.988639168014">
        <ele>74.6</ele>
        <time>2019-08-27T16:51:50Z</time>
      </trkpt>
      <trkpt lat="59.392266441133" lon="17.98856071343">
        <ele>74.8</ele>
        <time>2019-08-27T16:51:51Z</time>
      </trkpt>
      <trkpt lat="59.392367694485" lon="17.988338676899">
        <ele>75.8</ele>
        <time>2019-08-27T16:51:54Z</time>
      </trkpt>
      <trkpt lat="59.392407592329" lon="17.988263491256">
        <ele>76</ele>
        <time>2019-08-27T16:51:55Z</time>
      </trkpt>
      <trkpt lat="59.392784023458" lon="17.987733000805">
        <ele>76.8</ele>
        <time>2019-08-27T16:52:03Z</time>
      </trkpt>
      <trkpt lat="59.393301689602" lon="17.987292280503">
        <ele>78</ele>
        <time>2019-08-27T16:52:12Z</time>
      </trkpt>
      <trkpt lat="59.393389951009" lon="17.987237714334">
        <ele>78.6</ele>
        <time>2019-08-27T16:52:14Z</time>
      </trkpt>
      <trkpt lat="59.393474440561" lon="17.987179795405">
        <ele>78.6</ele>
        <time>2019-08-27T16:52:16Z</time>
      </trkpt>
      <trkpt lat="59.39356588709" lon="17.987116344422">
        <ele>78.4</ele>
        <time>2019-08-27T16:52:18Z</time>
      </trkpt>
      <trkpt lat="59.394136945937" lon="17.98680805814">
        <ele>78.4</ele>
        <time>2019-08-27T16:52:27Z</time>
      </trkpt>
      <trkpt lat="59.394623766689" lon="17.986565318316">
        <ele>79</ele>
        <time>2019-08-27T16:52:35Z</time>
      </trkpt>
      <trkpt lat="59.395054931625" lon="17.986257618767">
        <ele>80</ele>
        <time>2019-08-27T16:52:42Z</time>
      </trkpt>
      <trkpt lat="59.39560017422" lon="17.985936005264">
        <ele>80.8</ele>
        <time>2019-08-27T16:52:51Z</time>
      </trkpt>
      <trkpt lat="59.396098981089" lon="17.985530991856">
        <ele>80.8</ele>
        <time>2019-08-27T16:52:59Z</time>
      </trkpt>
      <trkpt lat="59.396616982509" lon="17.985026233838">
        <ele>81</ele>
        <time>2019-08-27T16:53:07Z</time>
      </trkpt>
      <trkpt lat="59.397148897883" lon="17.984476548836">
        <ele>80.8</ele>
        <time>2019-08-27T16:53:16Z</time>
      </trkpt>
      <trkpt lat="59.397266998854" lon="17.984360627159">
        <ele>81</ele>
        <time>2019-08-27T16:53:18Z</time>
      </trkpt>
      <trkpt lat="59.397778210935" lon="17.983850672363">
        <ele>81.8</ele>
        <time>2019-08-27T16:53:27Z</time>
      </trkpt>
      <trkpt lat="59.397997146163" lon="17.983578595889">
        <ele>82.2</ele>
        <time>2019-08-27T16:53:31Z</time>
      </trkpt>
      <trkpt lat="59.398388999988" lon="17.983029916715">
        <ele>83.2</ele>
        <time>2019-08-27T16:53:39Z</time>
      </trkpt>
      <trkpt lat="59.398853943981" lon="17.982511915295">
        <ele>84.2</ele>
        <time>2019-08-27T16:53:48Z</time>
      </trkpt>
      <trkpt lat="59.399048320242" lon="17.982238330079">
        <ele>84.8</ele>
        <time>2019-08-27T16:53:52Z</time>
      </trkpt>
      <trkpt lat="59.399446125216" lon="17.981413970214">
        <ele>84.2</ele>
        <time>2019-08-27T16:54:01Z</time>
      </trkpt>
      <trkpt lat="59.399577637227" lon="17.981102750267">
        <ele>84.8</ele>
        <time>2019-08-27T16:54:04Z</time>
      </trkpt>
      <trkpt lat="59.399851976814" lon="17.980366651809">
        <ele>85.4</ele>
        <time>2019-08-27T16:54:11Z</time>
      </trkpt>
      <trkpt lat="59.399996899865" lon="17.980071357472">
        <ele>87</ele>
        <time>2019-08-27T16:54:14Z</time>
      </trkpt>
      <trkpt lat="59.400368720949" lon="17.979273232954">
        <ele>87.8</ele>
        <time>2019-08-27T16:54:22Z</time>
      </trkpt>
      <trkpt lat="59.400467711188" lon="17.979079275788">
        <ele>88</ele>
        <time>2019-08-27T16:54:24Z</time>
      </trkpt>
      <trkpt lat="59.400785720474" lon="17.978391289436">
        <ele>89.2</ele>
        <time>2019-08-27T16:54:31Z</time>
      </trkpt>
      <trkpt lat="59.40114983021" lon="17.977606743596">
        <ele>88.4</ele>
        <time>2019-08-27T16:54:39Z</time>
      </trkpt>
      <trkpt lat="59.40141134549" lon="17.977126041631">
        <ele>88</ele>
        <time>2019-08-27T16:54:45Z</time>
      </trkpt>
      <trkpt lat="59.401805965342" lon="17.97630637563">
        <ele>87.6</ele>
        <time>2019-08-27T16:54:55Z</time>
      </trkpt>
      <trkpt lat="59.40227719576" lon="17.975336170705">
        <ele>89</ele>
        <time>2019-08-27T16:55:08Z</time>
      </trkpt>
      <trkpt lat="59.402670055413" lon="17.974495298497">
        <ele>89.8</ele>
        <time>2019-08-27T16:55:18Z</time>
      </trkpt>
      <trkpt lat="59.402787402013" lon="17.974271417948">
        <ele>90</ele>
        <time>2019-08-27T16:55:21Z</time>
      </trkpt>
      <trkpt lat="59.402874573773" lon="17.974134457702">
        <ele>90.2</ele>
        <time>2019-08-27T16:55:23Z</time>
      </trkpt>
      <trkpt lat="59.402976665315" lon="17.97399213304">
        <ele>90.2</ele>
        <time>2019-08-27T16:55:25Z</time>
      </trkpt>
      <trkpt lat="59.403078337762" lon="17.973962293476">
        <ele>90</ele>
        <time>2019-08-27T16:55:27Z</time>
      </trkpt>
      <trkpt lat="59.403181016037" lon="17.974047788856">
        <ele>89.6</ele>
        <time>2019-08-27T16:55:29Z</time>
      </trkpt>
      <trkpt lat="59.403346977657" lon="17.974206290585">
        <ele>89.4</ele>
        <time>2019-08-27T16:55:32Z</time>
      </trkpt>
      <trkpt lat="59.40386808038" lon="17.974543326784">
        <ele>90.2</ele>
        <time>2019-08-27T16:55:40Z</time>
      </trkpt>
      <trkpt lat="59.404416424278" lon="17.974950938581">
        <ele>89</ele>
        <time>2019-08-27T16:55:47Z</time>
      </trkpt>
      <trkpt lat="59.404610632901" lon="17.97529384211">
        <ele>87.8</ele>
        <time>2019-08-27T16:55:50Z</time>
      </trkpt>
      <trkpt lat="59.404935347707" lon="17.976158938009">
        <ele>88.6</ele>
        <time>2019-08-27T16:55:57Z</time>
      </trkpt>
      <trkpt lat="59.405031655738" lon="17.976378962884">
        <ele>88.8</ele>
        <time>2019-08-27T16:55:59Z</time>
      </trkpt>
      <trkpt lat="59.405149589071" lon="17.976549115454">
        <ele>88.8</ele>
        <time>2019-08-27T16:56:01Z</time>
      </trkpt>
      <trkpt lat="59.405283280376" lon="17.976654140661">
        <ele>88.8</ele>
        <time>2019-08-27T16:56:03Z</time>
      </trkpt>
      <trkpt lat="59.405412361636" lon="17.976738630213">
        <ele>89</ele>
        <time>2019-08-27T16:56:05Z</time>
      </trkpt>
      <trkpt lat="59.405517554481" lon="17.976880871056">
        <ele>89.2</ele>
        <time>2019-08-27T16:56:07Z</time>
      </trkpt>
      <trkpt lat="59.405629201389" lon="17.976962343124">
        <ele>89.4</ele>
        <time>2019-08-27T16:56:09Z</time>
      </trkpt>
      <trkpt lat="59.405758450287" lon="17.976886654567">
        <ele>89.4</ele>
        <time>2019-08-27T16:56:11Z</time>
      </trkpt>
      <trkpt lat="59.40586883991" lon="17.976733684892">
        <ele>89</ele>
        <time>2019-08-27T16:56:13Z</time>
      </trkpt>
      <trkpt lat="59.406243594659" lon="17.975928938673">
        <ele>90.2</ele>
        <time>2019-08-27T16:56:22Z</time>
      </trkpt>
      <trkpt lat="59.40634660821" lon="17.975718972078">
        <ele>91.6</ele>
        <time>2019-08-27T16:56:25Z</time>
      </trkpt>
      <trkpt lat="59.406472839624" lon="17.975566505317">
        <ele>92.8</ele>
        <time>2019-08-27T16:56:28Z</time>
      </trkpt>
      <trkpt lat="59.406723374615" lon="17.975298535974">
        <ele>93.8</ele>
        <time>2019-08-27T16:56:33Z</time>
      </trkpt>
      <trkpt lat="59.406830327659" lon="17.97524690347">
        <ele>94.4</ele>
        <time>2019-08-27T16:56:35Z</time>
      </trkpt>
      <trkpt lat="59.406888414226" lon="17.975245981461">
        <ele>94.8</ele>
        <time>2019-08-27T16:56:36Z</time>
      </trkpt>
      <trkpt lat="59.407001486057" lon="17.975260985062">
        <ele>95.8</ele>
        <time>2019-08-27T16:56:38Z</time>
      </trkpt>
      <trkpt lat="59.407057728606" lon="17.975252184067">
        <ele>96</ele>
        <time>2019-08-27T16:56:39Z</time>
      </trkpt>
      <trkpt lat="59.40730717395" lon="17.975150176344">
        <ele>97</ele>
        <time>2019-08-27T16:56:43Z</time>
      </trkpt>
      <trkpt lat="59.407877562245" lon="17.974813894516">
        <ele>97.2</ele>
        <time>2019-08-27T16:56:52Z</time>
      </trkpt>
      <trkpt lat="59.408259441609" lon="17.97441625718">
        <ele>98.2</ele>
        <time>2019-08-27T16:56:59Z</time>
      </trkpt>
      <trkpt lat="59.408589269374" lon="17.974188101862">
        <ele>98.4</ele>
        <time>2019-08-27T16:57:37Z</time>
      </trkpt>
      <trkpt lat="59.408722793041" lon="17.974333695465">
        <ele>98.4</ele>
        <time>2019-08-27T16:57:41Z</time>
      </trkpt>
      <trkpt lat="59.408833769397" lon="17.974524718966">
        <ele>98.6</ele>
        <time>2019-08-27T16:57:44Z</time>
      </trkpt>
      <trkpt lat="59.40891314599" lon="17.974667462723">
        <ele>98.2</ele>
        <time>2019-08-27T16:57:46Z</time>
      </trkpt>
      <trkpt lat="59.409004592519" lon="17.974719430503">
        <ele>98</ele>
        <time>2019-08-27T16:57:48Z</time>
      </trkpt>
      <trkpt lat="59.409105510595" lon="17.974613483287">
        <ele>97.6</ele>
        <time>2019-08-27T16:57:50Z</time>
      </trkpt>
      <trkpt lat="59.409314890457" lon="17.974158681393">
        <ele>97.4</ele>
        <time>2019-08-27T16:57:55Z</time>
      </trkpt>
      <trkpt lat="59.409479008059" lon="17.973930023161">
        <ele>97</ele>
        <time>2019-08-27T16:57:58Z</time>
      </trkpt>
      <trkpt lat="59.409685202799" lon="17.973735311624">
        <ele>96.4</ele>
        <time>2019-08-27T16:58:01Z</time>
      </trkpt>
      <trkpt lat="59.409829036203" lon="17.973638835955">
        <ele>95.8</ele>
        <time>2019-08-27T16:58:03Z</time>
      </trkpt>
      <trkpt lat="59.410424905474" lon="17.973456445811">
        <ele>95.4</ele>
        <time>2019-08-27T16:58:10Z</time>
      </trkpt>
      <trkpt lat="59.410722379105" lon="17.973396599045">
        <ele>94.6</ele>
        <time>2019-08-27T16:58:13Z</time>
      </trkpt>
      <trkpt lat="59.410917090642" lon="17.973358629038">
        <ele>93.2</ele>
        <time>2019-08-27T16:58:15Z</time>
      </trkpt>
      <trkpt lat="59.411213726083" lon="17.973372878268">
        <ele>92.2</ele>
        <time>2019-08-27T16:58:18Z</time>
      </trkpt>
      <trkpt lat="59.41151488775" lon="17.973347732568">
        <ele>91</ele>
        <time>2019-08-27T16:58:21Z</time>
      </trkpt>
      <trkpt lat="59.412071948824" lon="17.973317557728">
        <ele>90.8</ele>
        <time>2019-08-27T16:58:33Z</time>
      </trkpt>
      <trkpt lat="59.412657927453" lon="17.973179340197">
        <ele>90.6</ele>
        <time>2019-08-27T16:58:43Z</time>
      </trkpt>
      <trkpt lat="59.41323653001" lon="17.973073728257">
        <ele>92.4</ele>
        <time>2019-08-27T16:58:52Z</time>
      </trkpt>
      <trkpt lat="59.413415567394" lon="17.973030645291">
        <ele>93.4</ele>
        <time>2019-08-27T16:58:55Z</time>
      </trkpt>
      <trkpt lat="59.413834578575" lon="17.972970127973">
        <ele>94.4</ele>
        <time>2019-08-27T16:59:02Z</time>
      </trkpt>
      <trkpt lat="59.414285189519" lon="17.972890499923">
        <ele>95.6</ele>
        <time>2019-08-27T16:59:09Z</time>
      </trkpt>
      <trkpt lat="59.414852308873" lon="17.97283291627">
        <ele>94.6</ele>
        <time>2019-08-27T16:59:16Z</time>
      </trkpt>
      <trkpt lat="59.415003853625" lon="17.972823528542">
        <ele>94.4</ele>
        <time>2019-08-27T16:59:18Z</time>
      </trkpt>
      <trkpt lat="59.415588574969" lon="17.972780529395">
        <ele>94.6</ele>
        <time>2019-08-27T16:59:26Z</time>
      </trkpt>
      <trkpt lat="59.41586844661" lon="17.97275161184">
        <ele>95.6</ele>
        <time>2019-08-27T16:59:30Z</time>
      </trkpt>
      <trkpt lat="59.416464734976" lon="17.972595959957">
        <ele>95.6</ele>
        <time>2019-08-27T16:59:39Z</time>
      </trkpt>
      <trkpt lat="59.416797244949" lon="17.972513062966">
        <ele>94.2</ele>
        <time>2019-08-27T16:59:43Z</time>
      </trkpt>
      <trkpt lat="59.416972007564" lon="17.972498143184">
        <ele>93.2</ele>
        <time>2019-08-27T16:59:45Z</time>
      </trkpt>
      <trkpt lat="59.417236707966" lon="17.972484061592">
        <ele>92</ele>
        <time>2019-08-27T16:59:48Z</time>
      </trkpt>
      <trkpt lat="59.417504258214" lon="17.972451456001">
        <ele>90.8</ele>
        <time>2019-08-27T16:59:51Z</time>
      </trkpt>
      <trkpt lat="59.417971213863" lon="17.972404182085">
        <ele>89.6</ele>
        <time>2019-08-27T16:59:56Z</time>
      </trkpt>
      <trkpt lat="59.418185539046" lon="17.972384149344">
        <ele>88</ele>
        <time>2019-08-27T16:59:58Z</time>
      </trkpt>
      <trkpt lat="59.418403719903" lon="17.972344670595">
        <ele>86.4</ele>
        <time>2019-08-27T17:00:00Z</time>
      </trkpt>
      <trkpt lat="59.418617123077" lon="17.972308293149">
        <ele>85.2</ele>
        <time>2019-08-27T17:00:02Z</time>
      </trkpt>
      <trkpt lat="59.419198407842" lon="17.972194718404">
        <ele>84.6</ele>
        <time>2019-08-27T17:00:08Z</time>
      </trkpt>
      <trkpt lat="59.419344671997" lon="17.97215649694">
        <ele>84.4</ele>
        <time>2019-08-27T17:00:10Z</time>
      </trkpt>
      <trkpt lat="59.419402926202" lon="17.97215482056">
        <ele>84.2</ele>
        <time>2019-08-27T17:00:11Z</time>
      </trkpt>
      <trkpt lat="59.419452211774" lon="17.972176110586">
        <ele>84</ele>
        <time>2019-08-27T17:00:12Z</time>
      </trkpt>
      <trkpt lat="59.419532845652" lon="17.972243584881">
        <ele>83.8</ele>
        <time>2019-08-27T17:00:14Z</time>
      </trkpt>
      <trkpt lat="59.419613647168" lon="17.97223109585">
        <ele>83.8</ele>
        <time>2019-08-27T17:00:16Z</time>
      </trkpt>
      <trkpt lat="59.4196998131" lon="17.972096482536">
        <ele>83.8</ele>
        <time>2019-08-27T17:00:18Z</time>
      </trkpt>
      <trkpt lat="59.419964262045" lon="17.971143209049">
        <ele>83.8</ele>
        <time>2019-08-27T17:00:27Z</time>
      </trkpt>
      <trkpt lat="59.420194093743" lon="17.970436279603">
        <ele>85.6</ele>
        <time>2019-08-27T17:00:34Z</time>
      </trkpt>
      <trkpt lat="59.420518305635" lon="17.96954050595">
        <ele>85.4</ele>
        <time>2019-08-27T17:00:43Z</time>
      </trkpt>
      <trkpt lat="59.420595754391" lon="17.969249821658">
        <ele>87</ele>
        <time>2019-08-27T17:00:46Z</time>
      </trkpt>
      <trkpt lat="59.420673957518" lon="17.96897808046">
        <ele>88.2</ele>
        <time>2019-08-27T17:00:49Z</time>
      </trkpt>
      <trkpt lat="59.420801613855" lon="17.968488493681">
        <ele>89.2</ele>
        <time>2019-08-27T17:00:54Z</time>
      </trkpt>
      <trkpt lat="59.421242250338" lon="17.967718113252">
        <ele>87.6</ele>
        <time>2019-08-27T17:01:03Z</time>
      </trkpt>
      <trkpt lat="59.421406284121" lon="17.967530442511">
        <ele>87</ele>
        <time>2019-08-27T17:01:06Z</time>
      </trkpt>
      <trkpt lat="59.421747930365" lon="17.967143617826">
        <ele>88</ele>
        <time>2019-08-27T17:01:12Z</time>
      </trkpt>
      <trkpt lat="59.421780703594" lon="17.967077149359">
        <ele>88.2</ele>
        <time>2019-08-27T17:01:13Z</time>
      </trkpt>
      <trkpt lat="59.421794617548" lon="17.967009339788">
        <ele>87.8</ele>
        <time>2019-08-27T17:01:14Z</time>
      </trkpt>
      <trkpt lat="59.421796210109" lon="17.966890400627">
        <ele>87.2</ele>
        <time>2019-08-27T17:01:16Z</time>
      </trkpt>
      <trkpt lat="59.421784810725" lon="17.966857543579">
        <ele>87.2</ele>
        <time>2019-08-27T17:01:17Z</time>
      </trkpt>
      <trkpt lat="59.42176930421" lon="17.966834074259">
        <ele>87.2</ele>
        <time>2019-08-27T17:01:19Z</time>
      </trkpt>
    </trkseg>
  </trk>
</gpx>